createdAt,value
2019-03-20T00:01:45.768Z,1.20
2019-03-20T00:04:12.288Z,2.10
2019-03-20T00:06:38.873Z,1.20
2019-03-20T00:09:06.966Z,0.80
2019-03-20T00:11:33.479Z,1.03
2019-03-20T00:14:00.086Z,1.10
2019-03-20T00:16:26.689Z,0.80
2019-03-20T00:18:53.298Z,1.10
2019-03-20T00:21:19.880Z,1.00
2019-03-20T00:23:46.464Z,1.03
2019-03-20T00:26:13.079Z,0.93
2019-03-20T00:28:39.633Z,1.10
2019-03-20T00:31:06.105Z,1.97
2019-03-20T00:33:32.625Z,1.93
2019-03-20T00:35:59.179Z,1.20
2019-03-20T00:38:25.785Z,0.93
2019-03-20T00:40:52.355Z,1.27
2019-03-20T00:43:18.877Z,0.90
2019-03-20T00:45:45.453Z,1.20
2019-03-20T00:48:12.040Z,0.93
2019-03-20T00:50:38.674Z,0.80
2019-03-20T00:53:05.235Z,1.00
2019-03-20T00:55:31.744Z,0.80
2019-03-20T00:57:58.359Z,1.63
2019-03-20T01:00:24.931Z,1.60
2019-03-20T01:02:51.514Z,1.90
2019-03-20T01:05:19.123Z,1.00
2019-03-20T01:07:45.786Z,1.50
2019-03-20T01:10:20.132Z,1.10
2019-03-20T01:12:46.632Z,1.13
2019-03-20T01:15:13.223Z,1.70
2019-03-20T01:17:40.012Z,1.27
2019-03-20T01:20:08.476Z,1.23
2019-03-20T01:22:34.976Z,0.90
2019-03-20T01:25:01.795Z,0.87
2019-03-20T01:27:28.377Z,0.83
2019-03-20T01:29:54.980Z,0.90
2019-03-20T01:32:21.583Z,1.30
2019-03-20T01:34:48.162Z,2.60
2019-03-20T01:37:14.817Z,1.00
2019-03-20T01:39:41.301Z,0.90
2019-03-20T01:42:07.893Z,1.00
2019-03-20T01:44:34.493Z,2.13
2019-03-20T01:47:01.068Z,1.07
2019-03-20T01:49:27.664Z,0.83
2019-03-20T01:51:54.232Z,0.83
2019-03-20T01:54:20.737Z,2.10
2019-03-20T01:56:52.534Z,0.90
2019-03-20T01:59:19.111Z,2.40
2019-03-20T02:01:45.604Z,0.80
2019-03-20T02:04:12.273Z,0.80
2019-03-20T02:06:38.772Z,0.77
2019-03-20T02:09:05.468Z,1.10
2019-03-20T02:11:32.060Z,1.27
2019-03-20T02:13:58.668Z,0.73
2019-03-20T02:16:25.268Z,0.87
2019-03-20T02:18:51.872Z,0.80
2019-03-20T02:21:18.476Z,2.37
2019-03-20T02:23:45.080Z,1.20
2019-03-20T02:26:11.664Z,0.83
2019-03-20T02:28:38.268Z,0.80
2019-03-20T02:31:04.861Z,0.90
2019-03-20T02:33:31.457Z,1.10
2019-03-20T02:35:58.065Z,1.10
2019-03-20T02:38:24.649Z,1.07
2019-03-20T02:40:51.106Z,1.83
2019-03-20T02:43:17.588Z,1.27
2019-03-20T02:45:44.195Z,1.00
2019-03-20T02:48:10.783Z,1.20
2019-03-20T02:50:37.389Z,1.67
2019-03-20T02:53:03.978Z,1.10
2019-03-20T02:55:30.575Z,2.50
2019-03-20T02:57:57.178Z,0.90
2019-03-20T03:00:23.756Z,0.80
2019-03-20T03:02:50.365Z,1.10
2019-03-20T03:05:17.544Z,0.87
2019-03-20T03:07:44.218Z,0.90
2019-03-20T03:10:12.653Z,1.40
2019-03-20T03:12:39.245Z,3.30
2019-03-20T03:15:07.119Z,1.63
2019-03-20T03:17:33.741Z,1.73
2019-03-20T03:20:00.555Z,1.00
2019-03-20T03:22:27.479Z,0.97
2019-03-20T03:24:53.977Z,2.73
2019-03-20T03:27:20.563Z,1.50
2019-03-20T03:29:47.053Z,1.13
2019-03-20T03:32:13.666Z,0.80
2019-03-20T03:34:40.264Z,0.80
2019-03-20T03:37:06.857Z,1.00
2019-03-20T03:39:33.450Z,1.00
2019-03-20T03:42:00.576Z,1.10
2019-03-20T03:44:27.171Z,2.83
2019-03-20T03:46:53.787Z,1.10
2019-03-20T03:49:20.415Z,2.10
2019-03-20T03:51:46.985Z,0.80
2019-03-20T03:54:13.586Z,1.10
2019-03-20T03:56:40.194Z,1.13
2019-03-20T03:59:06.877Z,2.80
2019-03-20T04:01:33.397Z,1.20
2019-03-20T04:03:59.996Z,1.50
2019-03-20T04:06:35.655Z,1.73
2019-03-20T04:08:54.856Z,2.23
2019-03-20T04:11:21.365Z,3.07
2019-03-20T04:13:48.048Z,1.30
2019-03-20T04:16:14.544Z,1.63
2019-03-20T04:18:41.037Z,1.83
2019-03-20T04:21:07.639Z,1.67
2019-03-20T04:23:34.228Z,2.20
2019-03-20T04:26:00.924Z,5.13
2019-03-20T04:28:27.437Z,2.60
2019-03-20T04:30:54.021Z,4.03
2019-03-20T04:33:20.633Z,1.30
2019-03-20T04:35:47.243Z,1.30
2019-03-20T04:38:13.821Z,1.67
2019-03-20T04:40:40.480Z,1.83
2019-03-20T04:43:07.013Z,1.47
2019-03-20T04:45:33.533Z,1.53
2019-03-20T04:48:00.129Z,3.80
2019-03-20T04:50:26.704Z,2.57
2019-03-20T04:52:53.313Z,3.33
2019-03-20T04:55:19.925Z,3.53
2019-03-20T04:57:46.500Z,1.83
2019-03-20T05:00:18.141Z,2.93
2019-03-20T05:02:44.652Z,2.03
2019-03-20T05:05:11.336Z,1.07
2019-03-20T05:07:37.848Z,2.50
2019-03-20T05:10:06.363Z,2.30
2019-03-20T05:12:32.936Z,5.13
2019-03-20T05:14:59.529Z,5.33
2019-03-20T05:17:26.116Z,3.33
2019-03-20T05:19:52.640Z,4.33
2019-03-20T05:22:19.137Z,12.40
2019-03-20T05:24:45.824Z,12.40
2019-03-20T05:27:12.381Z,8.60
2019-03-20T05:29:39.265Z,2.47
2019-03-20T05:32:05.732Z,5.97
2019-03-20T05:34:32.245Z,4.33
2019-03-20T05:37:09.564Z,1.30
2019-03-20T05:39:27.217Z,1.57
2019-03-20T05:41:53.812Z,1.50
2019-03-20T05:44:20.316Z,9.47
2019-03-20T05:46:52.011Z,6.67
2019-03-20T05:49:18.593Z,5.50
2019-03-20T05:51:45.170Z,5.23
2019-03-20T05:54:11.748Z,4.20
2019-03-20T05:56:38.492Z,2.60
2019-03-20T05:59:05.060Z,2.40
2019-03-20T06:01:31.553Z,1.63
2019-03-20T06:03:58.133Z,3.33
2019-03-20T06:06:29.813Z,4.97
2019-03-20T06:08:56.453Z,14.33
2019-03-20T06:11:23.033Z,13.20
2019-03-20T06:13:49.620Z,5.27
2019-03-20T06:16:16.279Z,4.27
2019-03-20T06:18:42.833Z,6.47
2019-03-20T06:21:09.356Z,2.67
2019-03-20T06:23:35.962Z,2.33
2019-03-20T06:26:03.118Z,4.27
2019-03-20T06:28:29.711Z,2.93
2019-03-20T06:30:56.321Z,1.93
2019-03-20T06:33:22.900Z,2.97
2019-03-20T06:35:49.493Z,2.53
2019-03-20T06:38:16.114Z,2.47
2019-03-20T06:40:42.688Z,2.70
2019-03-20T06:43:09.283Z,3.13
2019-03-20T06:45:35.865Z,6.43
2019-03-20T06:48:02.548Z,4.87
2019-03-20T06:50:29.099Z,7.23
2019-03-20T06:52:55.688Z,4.17
2019-03-20T06:55:22.279Z,2.90
2019-03-20T06:57:48.890Z,5.80
2019-03-20T07:00:17.370Z,6.20
2019-03-20T07:02:44.632Z,8.00
2019-03-20T07:05:30.200Z,7.83
2019-03-20T07:07:56.700Z,7.17
2019-03-20T07:10:28.363Z,7.73
2019-03-20T07:12:54.880Z,6.87
2019-03-20T07:15:22.087Z,7.70
2019-03-20T07:17:48.617Z,3.80
2019-03-20T07:20:15.242Z,3.50
2019-03-20T07:22:42.097Z,2.50
2019-03-20T07:25:08.836Z,3.00
2019-03-20T07:27:35.453Z,2.10
2019-03-20T07:30:03.635Z,2.00
2019-03-20T07:32:30.191Z,4.73
2019-03-20T07:34:57.064Z,2.30
2019-03-20T07:37:23.552Z,2.87
2019-03-20T07:39:50.023Z,2.17
2019-03-20T07:42:16.644Z,1.33
2019-03-20T07:44:43.231Z,2.73
2019-03-20T07:47:09.749Z,3.50
2019-03-20T07:49:36.231Z,3.10
2019-03-20T07:52:02.946Z,5.07
2019-03-20T07:54:29.448Z,3.90
2019-03-20T07:56:56.132Z,3.80
2019-03-20T07:59:22.721Z,5.97
2019-03-20T08:01:49.345Z,4.27
2019-03-20T08:04:15.940Z,4.43
2019-03-20T08:06:42.582Z,6.43
2019-03-20T08:09:09.197Z,3.33
2019-03-20T08:11:35.808Z,3.93
2019-03-20T08:14:02.495Z,1.50
2019-03-20T08:16:29.005Z,2.40
2019-03-20T08:18:55.601Z,2.23
2019-03-20T08:21:22.097Z,0.90
2019-03-20T08:23:48.577Z,1.47
2019-03-20T08:26:15.209Z,1.67
2019-03-20T08:28:41.781Z,1.53
2019-03-20T08:31:08.361Z,4.73
2019-03-20T08:33:34.869Z,3.20
2019-03-20T08:36:01.548Z,3.13
2019-03-20T08:38:28.148Z,2.63
2019-03-20T08:40:54.752Z,1.40
2019-03-20T08:43:21.306Z,1.03
2019-03-20T08:45:47.925Z,1.10
2019-03-20T08:48:14.525Z,3.13
2019-03-20T08:50:41.109Z,3.93
2019-03-20T08:53:07.584Z,2.03
2019-03-20T08:55:34.117Z,1.80
2019-03-20T08:58:00.735Z,1.00
2019-03-20T09:00:27.327Z,1.13
2019-03-20T09:02:53.924Z,2.20
2019-03-20T09:05:20.489Z,1.30
2019-03-20T09:07:47.847Z,2.87
2019-03-20T09:10:18.530Z,3.30
2019-03-20T09:12:45.158Z,1.30
2019-03-20T09:15:12.836Z,4.80
2019-03-20T09:17:39.357Z,1.33
2019-03-20T09:20:10.553Z,2.77
2019-03-20T09:22:37.160Z,2.13
2019-03-20T09:25:05.649Z,2.33
2019-03-20T09:27:32.245Z,2.17
2019-03-20T09:29:58.853Z,2.50
2019-03-20T09:32:25.456Z,2.10
2019-03-20T09:34:52.053Z,1.90
2019-03-20T09:37:18.808Z,2.63
2019-03-20T09:39:45.380Z,1.43
2019-03-20T09:42:11.873Z,3.67
2019-03-20T09:44:38.426Z,3.13
2019-03-20T09:47:04.969Z,1.87
2019-03-20T09:49:31.451Z,1.40
2019-03-20T09:51:57.975Z,1.10
2019-03-20T09:54:24.561Z,1.53
2019-03-20T09:56:51.172Z,1.47
2019-03-20T09:59:17.748Z,1.23
2019-03-20T10:01:44.235Z,1.93
2019-03-20T10:04:10.817Z,1.30
2019-03-20T10:06:37.437Z,5.70
2019-03-20T10:09:05.229Z,1.47
2019-03-20T10:11:31.773Z,3.63
2019-03-20T10:13:58.360Z,1.77
2019-03-20T10:16:24.965Z,2.13
2019-03-20T10:18:51.541Z,1.20
2019-03-20T10:21:18.106Z,1.90
2019-03-20T10:23:44.792Z,4.43
2019-03-20T10:26:11.318Z,2.40
2019-03-20T10:28:37.908Z,1.87
2019-03-20T10:31:04.486Z,1.73
2019-03-20T10:33:30.985Z,1.67
2019-03-20T10:35:57.616Z,2.83
2019-03-20T10:38:24.219Z,2.53
2019-03-20T10:40:50.800Z,4.20
2019-03-20T10:43:17.378Z,3.20
2019-03-20T10:45:43.965Z,2.27
2019-03-20T10:48:10.469Z,2.27
2019-03-20T10:50:37.029Z,2.23
2019-03-20T10:53:03.633Z,3.67
2019-03-20T10:55:30.237Z,2.93
2019-03-20T10:57:56.822Z,3.47
2019-03-20T11:00:24.052Z,2.83
2019-03-20T11:02:50.641Z,2.93
2019-03-20T11:05:17.332Z,2.53
2019-03-20T11:07:44.165Z,1.50
2019-03-20T11:10:12.570Z,2.70
2019-03-20T11:12:39.220Z,2.40
2019-03-20T11:15:07.749Z,1.47
2019-03-20T11:17:34.345Z,3.37
2019-03-20T11:20:00.949Z,2.17
2019-03-20T11:22:27.587Z,1.47
2019-03-20T11:24:54.188Z,3.43
2019-03-20T11:27:21.262Z,2.30
2019-03-20T11:29:47.768Z,2.53
2019-03-20T11:32:14.557Z,3.23
2019-03-20T11:34:41.189Z,1.93
2019-03-20T11:37:08.563Z,2.27
2019-03-20T11:39:35.117Z,2.40
2019-03-20T11:42:02.273Z,2.23
2019-03-20T11:44:28.800Z,2.20
2019-03-20T11:46:55.409Z,2.60
2019-03-20T11:49:22.027Z,3.30
2019-03-20T11:51:48.604Z,2.43
2019-03-20T11:54:15.205Z,1.73
2019-03-20T11:56:41.902Z,1.80
2019-03-20T11:59:08.410Z,1.80
2019-03-20T12:01:35.019Z,2.20
2019-03-20T12:04:01.635Z,3.27
2019-03-20T12:06:28.333Z,2.20
2019-03-20T12:08:55.971Z,2.30
2019-03-20T12:11:22.561Z,4.30
2019-03-20T12:13:49.120Z,2.43
2019-03-20T12:16:15.865Z,3.17
2019-03-20T12:18:42.469Z,3.63
2019-03-20T12:21:09.493Z,5.60
2019-03-20T12:23:36.165Z,4.77
2019-03-20T12:26:02.956Z,3.23
2019-03-20T12:28:29.574Z,3.57
2019-03-20T12:30:56.124Z,3.70
2019-03-20T12:33:22.626Z,3.43
2019-03-20T12:35:49.247Z,4.97
2019-03-20T12:38:15.847Z,5.17
2019-03-20T12:40:42.466Z,4.23
2019-03-20T12:43:09.070Z,5.60
2019-03-20T12:45:36.362Z,5.70
2019-03-20T12:48:03.836Z,6.83
2019-03-20T12:50:30.652Z,7.93
2019-03-20T12:52:57.280Z,3.73
2019-03-20T12:55:23.963Z,6.13
2019-03-20T12:57:50.642Z,4.40
2019-03-20T13:00:18.309Z,5.37
2019-03-20T13:02:44.982Z,4.53
2019-03-20T13:05:12.802Z,5.37
2019-03-20T13:07:39.960Z,4.73
2019-03-20T13:10:08.193Z,6.40
2019-03-20T13:12:35.021Z,5.17
2019-03-20T13:15:01.705Z,8.90
2019-03-20T13:17:28.252Z,5.30
2019-03-20T13:19:54.836Z,6.93
2019-03-20T13:22:21.336Z,7.60
2019-03-20T13:24:48.049Z,5.10
2019-03-20T13:27:14.581Z,4.50
2019-03-20T13:29:41.180Z,8.20
2019-03-20T13:32:08.134Z,6.13
2019-03-20T13:34:34.719Z,5.70
2019-03-20T13:37:01.346Z,5.90
2019-03-20T13:39:27.965Z,5.37
2019-03-20T13:41:54.579Z,5.90
2019-03-20T13:44:21.278Z,5.30
2019-03-20T13:46:55.091Z,4.30
2019-03-20T13:49:21.689Z,5.43
2019-03-20T13:51:48.264Z,5.47
2019-03-20T13:54:14.883Z,5.93
2019-03-20T13:56:41.494Z,6.93
2019-03-20T13:59:08.064Z,6.00
2019-03-20T14:01:34.699Z,5.73
2019-03-20T14:04:01.312Z,7.27
2019-03-20T14:06:28.045Z,6.00
2019-03-20T14:08:54.549Z,6.30
2019-03-20T14:11:21.053Z,5.83
2019-03-20T14:13:47.664Z,9.20
2019-03-20T14:16:14.249Z,4.97
2019-03-20T14:18:40.874Z,5.57
2019-03-20T14:21:07.471Z,5.27
2019-03-20T14:23:34.037Z,7.60
2019-03-20T14:26:00.546Z,7.17
2019-03-20T14:28:27.156Z,4.47
2019-03-20T14:30:53.745Z,4.50
2019-03-20T14:33:20.372Z,5.43
2019-03-20T14:35:46.965Z,8.30
2019-03-20T14:38:13.582Z,6.40
2019-03-20T14:40:40.458Z,4.20
2019-03-20T14:43:07.071Z,3.60
2019-03-20T14:45:33.794Z,4.03
2019-03-20T14:48:00.397Z,4.03
2019-03-20T14:50:33.204Z,4.60
2019-03-20T14:52:59.720Z,4.47
2019-03-20T14:55:26.430Z,4.43
2019-03-20T14:57:53.402Z,5.27
2019-03-20T15:00:21.027Z,3.43
2019-03-20T15:02:47.610Z,7.57
2019-03-20T15:05:14.412Z,5.17
2019-03-20T15:07:41.005Z,6.53
2019-03-20T15:10:09.309Z,3.17
2019-03-20T15:12:35.817Z,7.37
2019-03-20T15:15:04.313Z,4.13
2019-03-20T15:17:30.904Z,3.93
2019-03-20T15:19:57.545Z,5.07
2019-03-20T15:22:24.079Z,4.63
2019-03-20T15:24:50.718Z,4.67
2019-03-20T15:27:17.312Z,4.20
2019-03-20T15:29:44.261Z,5.27
2019-03-20T15:32:10.818Z,4.50
2019-03-20T15:34:37.400Z,5.03
2019-03-20T15:37:04.000Z,5.53
2019-03-20T15:39:30.614Z,3.67
2019-03-20T15:41:57.208Z,4.07
2019-03-20T15:44:23.717Z,4.47
2019-03-20T15:46:50.324Z,3.20
2019-03-20T15:49:16.928Z,4.47
2019-03-20T15:51:43.572Z,3.37
2019-03-20T15:54:10.152Z,5.00
2019-03-20T15:56:36.659Z,5.23
2019-03-20T15:59:03.393Z,5.27
2019-03-20T16:01:29.902Z,3.80
2019-03-20T16:03:56.516Z,5.80
2019-03-20T16:06:47.944Z,4.27
2019-03-20T16:09:14.577Z,3.93
2019-03-20T16:11:41.574Z,5.23
2019-03-20T16:14:08.140Z,3.57
2019-03-20T16:16:34.764Z,5.37
2019-03-20T16:19:02.783Z,5.83
2019-03-20T16:21:29.365Z,3.87
2019-03-20T16:23:55.995Z,4.30
2019-03-20T16:26:22.672Z,7.50
2019-03-20T16:28:49.196Z,5.63
2019-03-20T16:31:15.809Z,4.57
2019-03-20T16:33:42.759Z,5.33
2019-03-20T16:36:09.392Z,4.77
2019-03-20T16:38:36.615Z,4.20
2019-03-20T16:41:03.152Z,4.17
2019-03-20T16:43:29.732Z,5.47
2019-03-20T16:45:56.429Z,5.03
2019-03-20T16:48:22.960Z,2.73
2019-03-20T16:50:49.468Z,3.47
2019-03-20T16:53:15.945Z,2.83
2019-03-20T16:55:42.537Z,4.80
2019-03-20T16:58:09.152Z,2.73
2019-03-20T17:00:35.774Z,3.40
2019-03-20T17:03:02.452Z,2.53
2019-03-20T17:05:29.567Z,2.93
2019-03-20T17:07:56.353Z,2.63
2019-03-20T17:10:30.277Z,3.97
2019-03-20T17:12:57.525Z,3.73
2019-03-20T17:15:25.270Z,5.10
2019-03-20T17:17:51.862Z,5.90
2019-03-20T17:20:18.478Z,3.67
2019-03-20T17:22:45.141Z,4.37
2019-03-20T17:25:11.736Z,3.50
2019-03-20T17:27:38.255Z,4.23
2019-03-20T17:30:06.810Z,8.27
2019-03-20T17:32:33.332Z,6.23
2019-03-20T17:34:59.948Z,3.93
2019-03-20T17:37:26.554Z,6.37
2019-03-20T17:39:53.097Z,4.47
2019-03-20T17:42:19.727Z,4.77
2019-03-20T17:44:46.205Z,5.70
2019-03-20T17:47:12.772Z,5.93
2019-03-20T17:49:39.423Z,9.37
2019-03-20T17:52:06.580Z,5.97
2019-03-20T17:54:33.181Z,11.57
2019-03-20T17:56:59.832Z,11.77
2019-03-20T17:59:26.456Z,7.47
2019-03-20T18:01:53.038Z,6.70
2019-03-20T18:04:19.691Z,6.63
2019-03-20T18:06:46.461Z,8.50
2019-03-20T18:09:13.076Z,7.70
2019-03-20T18:11:47.071Z,16.30
2019-03-20T18:14:08.051Z,6.63
2019-03-20T18:16:34.696Z,6.87
2019-03-20T18:19:01.412Z,6.27
2019-03-20T18:21:28.041Z,11.50
2019-03-20T18:23:54.599Z,7.83
2019-03-20T18:26:21.246Z,8.83
2019-03-20T18:28:50.013Z,6.50
2019-03-20T18:31:17.283Z,5.67
2019-03-20T18:33:43.984Z,7.23
2019-03-20T18:36:10.729Z,9.07
2019-03-20T18:38:37.385Z,6.93
2019-03-20T18:41:04.254Z,6.47
2019-03-20T18:43:30.904Z,6.17
2019-03-20T18:45:57.538Z,5.87
2019-03-20T18:48:24.187Z,6.27
2019-03-20T18:50:50.826Z,8.77
2019-03-20T18:53:17.505Z,5.40
2019-03-20T18:55:44.165Z,7.20
2019-03-20T18:58:10.842Z,6.13
2019-03-20T19:00:37.502Z,12.57
2019-03-20T19:03:08.745Z,6.00
2019-03-20T19:05:49.621Z,7.40
2019-03-20T19:08:16.338Z,6.50
2019-03-20T19:10:42.980Z,6.13
2019-03-20T19:13:09.684Z,6.77
2019-03-20T19:15:37.169Z,5.13
2019-03-20T19:18:03.887Z,8.27
2019-03-20T19:20:30.567Z,5.77
2019-03-20T19:22:57.241Z,4.77
2019-03-20T19:25:23.876Z,4.23
2019-03-20T19:27:50.495Z,4.83
2019-03-20T19:30:19.033Z,5.30
2019-03-20T19:32:45.666Z,5.10
2019-03-20T19:35:12.272Z,5.70
2019-03-20T19:37:38.789Z,6.60
2019-03-20T19:40:10.175Z,4.40
2019-03-20T19:42:36.795Z,6.60
2019-03-20T19:45:05.193Z,4.27
2019-03-20T19:47:32.081Z,4.40
2019-03-20T19:49:58.589Z,6.47
2019-03-20T19:52:25.098Z,5.20
2019-03-20T19:54:51.730Z,5.13
2019-03-20T19:57:18.312Z,8.97
2019-03-20T19:59:44.908Z,4.50
2019-03-20T20:02:11.401Z,5.13
2019-03-20T20:04:37.982Z,5.83
2019-03-20T20:07:04.498Z,5.60
2019-03-20T20:09:31.061Z,4.73
2019-03-20T20:11:57.586Z,4.73
2019-03-20T20:14:24.153Z,5.20
2019-03-20T20:16:50.765Z,10.00
2019-03-20T20:19:17.377Z,6.60
2019-03-20T20:21:43.916Z,5.97
2019-03-20T20:24:10.452Z,5.90
2019-03-20T20:26:37.057Z,4.27
2019-03-20T20:29:03.648Z,6.60
2019-03-20T20:31:30.253Z,5.97
2019-03-20T20:33:56.844Z,4.03
2019-03-20T20:36:23.472Z,4.17
2019-03-20T20:38:51.091Z,3.73
2019-03-20T20:41:17.862Z,5.83
2019-03-20T20:43:44.473Z,5.30
2019-03-20T20:46:11.041Z,6.60
2019-03-20T20:48:37.673Z,3.77
2019-03-20T20:51:04.273Z,4.97
2019-03-20T20:53:30.867Z,3.43
2019-03-20T20:55:57.509Z,6.10
2019-03-20T20:58:24.100Z,5.57
2019-03-20T21:00:50.636Z,7.23
2019-03-20T21:03:17.221Z,4.70
2019-03-20T21:05:43.858Z,3.87
2019-03-20T21:08:12.974Z,5.17
2019-03-20T21:10:39.578Z,4.40
2019-03-20T21:13:06.194Z,3.93
2019-03-20T21:15:33.791Z,5.20
2019-03-20T21:18:14.630Z,3.83
2019-03-20T21:20:41.832Z,2.57
2019-03-20T21:23:25.637Z,3.83
2019-03-20T21:25:52.221Z,3.63
2019-03-20T21:28:37.160Z,2.40
2019-03-20T21:31:05.855Z,2.07
2019-03-20T21:33:46.445Z,3.90
2019-03-20T21:36:17.573Z,6.43
2019-03-20T21:38:44.073Z,4.83
2019-03-20T21:41:18.420Z,3.03
2019-03-20T21:43:49.604Z,6.37
2019-03-20T21:46:34.637Z,5.97
2019-03-20T21:49:01.246Z,6.20
2019-03-20T21:51:27.856Z,8.60
2019-03-20T21:54:11.390Z,7.27
2019-03-20T21:56:56.389Z,8.40
2019-03-20T21:59:24.842Z,6.20
2019-03-20T22:01:56.372Z,7.73
2019-03-20T22:04:22.948Z,5.97
2019-03-20T22:07:05.539Z,5.07
2019-03-20T22:09:34.052Z,7.30
2019-03-20T22:12:17.652Z,9.27
2019-03-20T22:14:46.024Z,9.27
2019-03-20T22:17:14.443Z,8.07
2019-03-20T22:19:42.965Z,7.37
2019-03-20T22:22:11.518Z,6.90
2019-03-20T22:24:56.561Z,8.80
2019-03-20T22:27:27.721Z,5.83
2019-03-20T22:29:54.325Z,5.03
2019-03-20T22:32:28.604Z,2.67
2019-03-20T22:35:03.115Z,2.63
2019-03-20T22:37:29.713Z,4.80
2019-03-20T22:40:13.554Z,5.60
2019-03-20T22:42:41.998Z,4.77
2019-03-20T22:45:22.574Z,5.70
2019-03-20T22:47:57.017Z,4.53
2019-03-20T22:50:40.609Z,3.97
2019-03-20T22:53:14.732Z,5.10
2019-03-20T22:55:46.095Z,4.43
2019-03-20T22:58:20.404Z,6.97
2019-03-20T23:00:48.754Z,4.10
2019-03-20T23:03:20.130Z,3.13
2019-03-20T23:05:46.667Z,5.97
2019-03-20T23:08:14.177Z,6.20
2019-03-20T23:10:40.796Z,3.40
2019-03-20T23:13:18.249Z,4.67
2019-03-20T23:15:35.660Z,5.73
2019-03-20T23:18:02.165Z,3.97
2019-03-20T23:20:28.865Z,5.00
2019-03-20T23:22:55.474Z,3.87
2019-03-20T23:25:22.063Z,3.47
2019-03-20T23:27:48.676Z,3.60
2019-03-20T23:30:25.641Z,2.63
2019-03-20T23:32:52.236Z,3.37
2019-03-20T23:35:18.755Z,4.00
2019-03-20T23:37:45.348Z,3.33
2019-03-20T23:40:13.578Z,3.37
2019-03-20T23:42:40.636Z,2.23
2019-03-20T23:45:09.037Z,2.47
2019-03-20T23:47:37.561Z,2.20
2019-03-20T23:50:06.065Z,3.03
2019-03-20T23:52:32.656Z,2.70
2019-03-20T23:54:59.265Z,2.40
2019-03-20T23:57:25.875Z,3.40
2019-03-20T23:59:52.484Z,2.53
